sensor_id;sensor_type;location;lat;lon;timestamp;pressure;altitude;pressure_sealevel;temperature;humidity
64243;BME280;50573;51.512;5.386;2023-07-31T00:03:13;169002.16;;;16.87;100.00
64243;BME280;50573;51.512;5.386;2023-07-31T00:13:16;168988.84;;;16.82;100.00
64243;BME280;50573;51.512;5.386;2023-07-31T00:23:21;168995.47;;;16.85;100.00
64243;BME280;50573;51.512;5.386;2023-07-31T00:33:24;169003.44;;;16.88;100.00
64243;BME280;50573;51.512;5.386;2023-07-31T00:43:28;169016.75;;;16.93;100.00
64243;BME280;50573;51.512;5.386;2023-07-31T00:53:31;169019.44;;;16.94;100.00
64243;BME280;50573;51.512;5.386;2023-07-31T01:03:36;169022.09;;;16.95;100.00
64243;BME280;50573;51.512;5.386;2023-07-31T01:13:39;169016.75;;;16.93;100.00
64243;BME280;50573;51.512;5.386;2023-07-31T01:23:59;168995.47;;;16.85;100.00
64243;BME280;50573;51.512;5.386;2023-07-31T01:34:13;168999.47;;;16.86;100.00
64243;BME280;50573;51.512;5.386;2023-07-31T01:44:17;168983.50;;;16.80;100.00
64243;BME280;50573;51.512;5.386;2023-07-31T01:54:21;168966.22;;;16.74;100.00
64243;BME280;50573;51.512;5.386;2023-07-31T02:04:24;168951.56;;;16.68;100.00
64243;BME280;50573;51.512;5.386;2023-07-31T02:14:29;168940.94;;;16.64;100.00
64243;BME280;50573;51.512;5.386;2023-07-31T02:24:32;168939.59;;;16.63;100.00
64243;BME280;50573;51.512;5.386;2023-07-31T02:34:36;168926.28;;;16.58;100.00
64243;BME280;50573;51.512;5.386;2023-07-31T02:44:39;168917.03;;;16.55;100.00
64243;BME280;50573;51.512;5.386;2023-07-31T02:54:43;168911.69;;;16.53;100.00
64243;BME280;50573;51.512;5.386;2023-07-31T03:04:47;168906.34;;;16.51;100.00
64243;BME280;50573;51.512;5.386;2023-07-31T03:14:51;168907.69;;;16.51;100.00
64243;BME280;50573;51.512;5.386;2023-07-31T03:24:54;168902.38;;;16.49;100.00
64243;BME280;50573;51.512;5.386;2023-07-31T03:34:58;168918.31;;;16.55;100.00
64243;BME280;50573;51.512;5.386;2023-07-31T03:45:02;168926.28;;;16.58;100.00
64243;BME280;50573;51.512;5.386;2023-07-31T03:55:07;168952.91;;;16.69;100.00
64243;BME280;50573;51.512;5.386;2023-07-31T04:05:10;168978.19;;;16.78;100.00
64243;BME280;50573;51.512;5.386;2023-07-31T04:15:14;168976.88;;;16.78;100.00
64243;BME280;50573;51.512;5.386;2023-07-31T04:25:17;169023.44;;;16.95;100.00
64243;BME280;50573;51.512;5.386;2023-07-31T04:35:22;169050.06;;;17.05;100.00
64243;BME280;50573;51.512;5.386;2023-07-31T04:45:25;169068.66;;;17.12;100.00
64243;BME280;50573;51.512;5.386;2023-07-31T04:55:29;169088.66;;;17.20;100.00
64243;BME280;50573;51.512;5.386;2023-07-31T05:05:32;169109.94;;;17.28;100.00
64243;BME280;50573;51.512;5.386;2023-07-31T05:15:36;169076.63;;;17.15;100.00
64243;BME280;50573;51.512;5.386;2023-07-31T05:25:39;169062.03;;;17.10;100.00
64243;BME280;50573;51.512;5.386;2023-07-31T05:35:43;169066.00;;;17.11;100.00
64243;BME280;50573;51.512;5.386;2023-07-31T05:45:47;169040.75;;;17.02;100.00
64243;BME280;50573;51.512;5.386;2023-07-31T05:55:51;169026.09;;;16.96;100.00
64243;BME280;50573;51.512;5.386;2023-07-31T06:05:54;169010.13;;;16.90;100.00
64243;BME280;50573;51.512;5.386;2023-07-31T06:15:58;169022.09;;;16.95;100.00
64243;BME280;50573;51.512;5.386;2023-07-31T06:26:02;169044.72;;;17.03;100.00
64243;BME280;50573;51.512;5.386;2023-07-31T06:36:06;169081.97;;;17.17;100.00
64243;BME280;50573;51.512;5.386;2023-07-31T06:46:09;169101.97;;;17.25;100.00
64243;BME280;50573;51.512;5.386;2023-07-31T06:56:14;169100.63;;;17.24;100.00
64243;BME280;50573;51.512;5.386;2023-07-31T07:06:17;169121.91;;;17.32;100.00
64243;BME280;50573;51.512;5.386;2023-07-31T07:16:22;169155.22;;;17.45;100.00
64243;BME280;50573;51.512;5.386;2023-07-31T07:26:25;169168.53;;;17.50;100.00
64243;BME280;50573;51.512;5.386;2023-07-31T07:36:29;169179.22;;;17.54;100.00
64243;BME280;50573;51.512;5.386;2023-07-31T07:46:34;169176.50;;;17.53;100.00
64243;BME280;50573;51.512;5.386;2023-07-31T07:56:39;169193.81;;;17.59;100.00
64243;BME280;50573;51.512;5.386;2023-07-31T08:06:42;169209.78;;;17.65;100.00
64243;BME280;50573;51.512;5.386;2023-07-31T08:16:46;169227.09;;;17.72;100.00
64243;BME280;50573;51.512;5.386;2023-07-31T08:26:49;169208.47;;;17.65;100.00
64243;BME280;50573;51.512;5.386;2023-07-31T08:36:54;169233.75;;;17.74;100.00
64243;BME280;50573;51.512;5.386;2023-07-31T08:46:57;169217.81;;;17.68;100.00
64243;BME280;50573;51.512;5.386;2023-07-31T08:57:02;169251.06;;;17.81;100.00
64243;BME280;50573;51.512;5.386;2023-07-31T09:07:06;169301.66;;;18.00;100.00
64243;BME280;50573;51.512;5.386;2023-07-31T09:17:12;169364.25;;;18.24;100.00
64243;BME280;50573;51.512;5.386;2023-07-31T09:27:15;169364.25;;;18.24;100.00
64243;BME280;50573;51.512;5.386;2023-07-31T09:37:19;169446.81;;;18.55;100.00
64243;BME280;50573;51.512;5.386;2023-07-31T09:47:23;169485.44;;;18.69;100.00
64243;BME280;50573;51.512;5.386;2023-07-31T09:57:29;169510.75;;;18.79;100.00
64243;BME280;50573;51.512;5.386;2023-07-31T10:07:51;169542.75;;;18.91;100.00
64243;BME280;50573;51.512;5.386;2023-07-31T10:17:58;169661.34;;;19.36;100.00
64243;BME280;50573;51.512;5.386;2023-07-31T10:28:02;169751.94;;;19.70;100.00
64243;BME280;50573;51.512;5.386;2023-07-31T10:38:12;169795.94;;;19.86;100.00
64243;BME280;50573;51.512;5.386;2023-07-31T10:48:16;169810.63;;;19.92;100.00
64243;BME280;50573;51.512;5.386;2023-07-31T10:58:22;169865.25;;;20.12;100.00
64243;BME280;50573;51.512;5.386;2023-07-31T11:08:33;169942.63;;;20.41;100.00
64243;BME280;50573;51.512;5.386;2023-07-31T11:18:42;169938.63;;;20.40;100.00
64243;BME280;50573;51.512;5.386;2023-07-31T11:28:47;169966.66;;;20.50;100.00
64243;BME280;50573;51.512;5.386;2023-07-31T11:38:52;170178.69;;;21.30;100.00
64243;BME280;50573;51.512;5.386;2023-07-31T11:49:00;170201.38;;;21.39;100.00
64243;BME280;50573;51.512;5.386;2023-07-31T11:59:14;170162.72;;;21.24;100.00
64243;BME280;50573;51.512;5.386;2023-07-31T12:09:18;170047.97;;;20.81;100.00
64243;BME280;50573;51.512;5.386;2023-07-31T12:19:25;169971.94;;;20.52;100.00
64243;BME280;50573;51.512;5.386;2023-07-31T12:29:34;169862.63;;;20.11;100.00
64243;BME280;50573;51.512;5.386;2023-07-31T12:39:44;169803.94;;;19.89;100.00
64243;BME280;50573;51.512;5.386;2023-07-31T12:49:47;169741.31;;;19.66;100.00
64243;BME280;50573;51.512;5.386;2023-07-31T12:59:52;169801.28;;;19.88;100.00
64243;BME280;50573;51.512;5.386;2023-07-31T13:09:55;169830.59;;;19.99;100.00
64243;BME280;50573;51.512;5.386;2023-07-31T13:20:00;169884.00;;;20.19;100.00
64243;BME280;50573;51.512;5.386;2023-07-31T13:30:04;169911.97;;;20.30;100.00
64243;BME280;50573;51.512;5.386;2023-07-31T13:40:10;169877.28;;;20.17;100.00
64243;BME280;50573;51.512;5.386;2023-07-31T13:50:13;169826.59;;;19.98;100.00
64243;BME280;50573;51.512;5.386;2023-07-31T14:00:19;169797.28;;;19.87;100.00
64243;BME280;50573;51.512;5.386;2023-07-31T14:10:23;169714.66;;;19.56;100.00
64243;BME280;50573;51.512;5.386;2023-07-31T14:20:28;169676.03;;;19.41;100.00
64243;BME280;50573;51.512;5.386;2023-07-31T14:30:31;169666.69;;;19.38;100.00
64243;BME280;50573;51.512;5.386;2023-07-31T14:40:35;169700.03;;;19.50;100.00
64243;BME280;50573;51.512;5.386;2023-07-31T14:50:40;169701.31;;;19.51;100.00
64243;BME280;50573;51.512;5.386;2023-07-31T15:00:44;169634.69;;;19.25;100.00
64243;BME280;50573;51.512;5.386;2023-07-31T15:10:47;169653.34;;;19.33;100.00
64243;BME280;50573;51.512;5.386;2023-07-31T15:20:53;169653.34;;;19.33;100.00
64243;BME280;50573;51.512;5.386;2023-07-31T15:30:57;169610.69;;;19.16;100.00
64243;BME280;50573;51.512;5.386;2023-07-31T15:41:03;169544.09;;;18.91;100.00
64243;BME280;50573;51.512;5.386;2023-07-31T15:51:20;169480.16;;;18.67;100.00
64243;BME280;50573;51.512;5.386;2023-07-31T16:01:28;169393.53;;;18.35;100.00
64243;BME280;50573;51.512;5.386;2023-07-31T16:11:40;169373.53;;;18.27;100.00
64243;BME280;50573;51.512;5.386;2023-07-31T16:21:46;169373.53;;;18.27;100.00
64243;BME280;50573;51.512;5.386;2023-07-31T16:31:52;169389.56;;;18.33;100.00
64243;BME280;50573;51.512;5.386;2023-07-31T16:42:04;169376.22;;;18.28;100.00
64243;BME280;50573;51.512;5.386;2023-07-31T16:52:36;169357.56;;;18.21;100.00
64243;BME280;50573;51.512;5.386;2023-07-31T17:02:40;169366.91;;;18.25;100.00
64243;BME280;50573;51.512;5.386;2023-07-31T17:12:43;169345.59;;;18.17;100.00
64243;BME280;50573;51.512;5.386;2023-07-31T17:22:48;169346.94;;;18.17;100.00
64243;BME280;50573;51.512;5.386;2023-07-31T17:32:51;169349.59;;;18.18;100.00
64243;BME280;50573;51.512;5.386;2023-07-31T17:42:58;169353.56;;;18.20;100.00
64243;BME280;50573;51.512;5.386;2023-07-31T17:53:10;169341.59;;;18.15;100.00
64243;BME280;50573;51.512;5.386;2023-07-31T18:03:14;169350.94;;;18.19;100.00
64243;BME280;50573;51.512;5.386;2023-07-31T18:13:18;169356.22;;;18.21;100.00
64243;BME280;50573;51.512;5.386;2023-07-31T18:23:22;169345.59;;;18.17;100.00
64243;BME280;50573;51.512;5.386;2023-07-31T18:33:26;169376.22;;;18.28;100.00
64243;BME280;50573;51.512;5.386;2023-07-31T18:43:30;169310.97;;;18.04;100.00
64243;BME280;50573;51.512;5.386;2023-07-31T18:53:33;169299.00;;;17.99;100.00
64243;BME280;50573;51.512;5.386;2023-07-31T19:03:38;169325.59;;;18.09;100.00
64243;BME280;50573;51.512;5.386;2023-07-31T19:13:41;169300.31;;;17.99;100.00
64243;BME280;50573;51.512;5.386;2023-07-31T19:23:47;169269.72;;;17.88;100.00
64243;BME280;50573;51.512;5.386;2023-07-31T19:33:50;169265.69;;;17.86;100.00
64243;BME280;50573;51.512;5.386;2023-07-31T19:43:55;169277.72;;;17.91;100.00
64243;BME280;50573;51.512;5.386;2023-07-31T19:53:58;169276.34;;;17.90;100.00
64243;BME280;50573;51.512;5.386;2023-07-31T20:04:03;169289.69;;;17.95;100.00
64243;BME280;50573;51.512;5.386;2023-07-31T20:14:06;169252.44;;;17.81;100.00
64243;BME280;50573;51.512;5.386;2023-07-31T20:24:11;169232.41;;;17.74;100.00
64243;BME280;50573;51.512;5.386;2023-07-31T20:34:14;169185.84;;;17.56;100.00
64243;BME280;50573;51.512;5.386;2023-07-31T20:44:19;169179.22;;;17.54;100.00
64243;BME280;50573;51.512;5.386;2023-07-31T20:54:22;169151.19;;;17.43;100.00
64243;BME280;50573;51.512;5.386;2023-07-31T21:04:26;73716.03;;;-142.69;100.00
64243;BME280;50573;51.512;5.386;2023-07-31T21:14:31;73716.03;;;-142.69;100.00
64243;BME280;50573;51.512;5.386;2023-07-31T21:24:35;73716.03;;;-142.69;100.00
64243;BME280;50573;51.512;5.386;2023-07-31T21:34:38;73716.03;;;-142.69;100.00
64243;BME280;50573;51.512;5.386;2023-07-31T21:44:45;73716.03;;;-142.69;100.00
64243;BME280;50573;51.512;5.386;2023-07-31T21:54:48;73716.03;;;-142.69;100.00
64243;BME280;50573;51.512;5.386;2023-07-31T22:04:52;73716.03;;;-142.69;100.00
64243;BME280;50573;51.512;5.386;2023-07-31T22:14:55;73716.03;;;-142.69;100.00
64243;BME280;50573;51.512;5.386;2023-07-31T22:24:59;73716.03;;;-142.69;100.00
64243;BME280;50573;51.512;5.386;2023-07-31T22:35:02;73716.03;;;-142.69;100.00
64243;BME280;50573;51.512;5.386;2023-07-31T22:45:09;73716.03;;;-142.69;100.00
64243;BME280;50573;51.512;5.386;2023-07-31T22:55:12;73716.03;;;-142.69;100.00
64243;BME280;50573;51.512;5.386;2023-07-31T23:05:17;73716.03;;;-142.69;100.00
64243;BME280;50573;51.512;5.386;2023-07-31T23:15:20;73716.03;;;-142.69;100.00
64243;BME280;50573;51.512;5.386;2023-07-31T23:25:24;73716.03;;;-142.69;100.00
64243;BME280;50573;51.512;5.386;2023-07-31T23:35:27;73716.03;;;-142.69;100.00
64243;BME280;50573;51.512;5.386;2023-07-31T23:45:32;73716.03;;;-142.69;100.00
64243;BME280;50573;51.512;5.386;2023-07-31T23:55:37;73716.03;;;-142.69;100.00
